sensor_id;sensor_type;location;lat;lon;timestamp;pressure;altitude;pressure_sealevel;temperature;humidity
73974;BME280;62336;-26.094;27.994;2022-12-24T00:12:10;84784.75;;;17.31;55.95
73974;BME280;62336;-26.094;27.994;2022-12-24T00:14:35;84782.75;;;19.98;46.97
73974;BME280;62336;-26.094;27.994;2022-12-24T00:17:00;84775.78;;;22.16;39.68
73974;BME280;62336;-26.094;27.994;2022-12-24T00:19:26;84774.82;;;23.66;37.22
73974;BME280;62336;-26.094;27.994;2022-12-24T00:21:51;84775.80;;;24.72;34.24
73974;BME280;62336;-26.094;27.994;2022-12-24T00:24:16;84782.83;;;25.68;32.37
73974;BME280;62336;-26.094;27.994;2022-12-24T00:26:42;84784.37;;;26.05;30.88
73974;BME280;62336;-26.094;27.994;2022-12-24T00:29:08;84784.42;;;27.01;29.42
73974;BME280;62336;-26.094;27.994;2022-12-24T00:31:33;84784.29;;;27.38;28.59
73974;BME280;62336;-26.094;27.994;2022-12-24T00:33:58;84788.09;;;27.80;27.87
73974;BME280;62336;-26.094;27.994;2022-12-24T00:36:25;84786.26;;;27.68;27.39
73974;BME280;62336;-26.094;27.994;2022-12-24T00:38:50;84784.12;;;28.16;26.41
73974;BME280;62336;-26.094;27.994;2022-12-24T00:41:15;84783.62;;;28.30;26.36
73974;BME280;62336;-26.094;27.994;2022-12-24T00:43:40;84784.66;;;28.79;25.84
73974;BME280;62336;-26.094;27.994;2022-12-24T00:46:06;84782.20;;;28.96;25.19
73974;BME280;62336;-26.094;27.994;2022-12-24T00:48:31;84785.15;;;28.87;25.37
73974;BME280;62336;-26.094;27.994;2022-12-24T00:50:57;84782.28;;;28.76;25.23
73974;BME280;62336;-26.094;27.994;2022-12-24T00:53:22;84783.35;;;28.91;25.04
73974;BME280;62336;-26.094;27.994;2022-12-24T00:55:48;84781.55;;;28.88;25.20
73974;BME280;62336;-26.094;27.994;2022-12-24T00:58:13;84781.32;;;29.17;24.95
73974;BME280;62336;-26.094;27.994;2022-12-24T01:00:38;84781.23;;;29.24;24.71
73974;BME280;62336;-26.094;27.994;2022-12-24T01:03:03;84782.80;;;28.96;25.21
73974;BME280;62336;-26.094;27.994;2022-12-24T01:05:29;84783.11;;;28.97;25.02
73974;BME280;62336;-26.094;27.994;2022-12-24T01:07:54;84785.67;;;29.04;24.74
73974;BME280;62336;-26.094;27.994;2022-12-24T01:10:20;84787.04;;;29.25;24.60
73974;BME280;62336;-26.094;27.994;2022-12-24T01:12:47;84792.29;;;29.12;24.75
73974;BME280;62336;-26.094;27.994;2022-12-24T01:15:12;84795.65;;;29.11;24.99
73974;BME280;62336;-26.094;27.994;2022-12-24T01:17:36;84799.81;;;28.80;25.14
73974;BME280;62336;-26.094;27.994;2022-12-24T01:20:03;84798.61;;;28.81;25.06
73974;BME280;62336;-26.094;27.994;2022-12-24T01:22:27;84798.69;;;28.79;25.48
73974;BME280;62336;-26.094;27.994;2022-12-24T01:24:53;84798.34;;;28.66;25.38
73974;BME280;62336;-26.094;27.994;2022-12-24T01:27:19;84799.90;;;28.73;25.26
73974;BME280;62336;-26.094;27.994;2022-12-24T01:29:44;84803.32;;;28.89;25.36
73974;BME280;62336;-26.094;27.994;2022-12-24T01:32:10;84804.06;;;29.14;25.56
73974;BME280;62336;-26.094;27.994;2022-12-24T01:34:36;84807.83;;;28.49;25.63
73974;BME280;62336;-26.094;27.994;2022-12-24T01:37:01;84808.77;;;28.46;25.52
73974;BME280;62336;-26.094;27.994;2022-12-24T01:39:26;84811.77;;;28.23;25.70
73974;BME280;62336;-26.094;27.994;2022-12-24T01:41:52;84813.47;;;28.82;25.48
73974;BME280;62336;-26.094;27.994;2022-12-24T01:44:18;84814.58;;;28.88;25.48
73974;BME280;62336;-26.094;27.994;2022-12-24T01:46:42;84813.49;;;28.64;25.50
73974;BME280;62336;-26.094;27.994;2022-12-24T01:49:11;84814.34;;;28.65;25.51
73974;BME280;62336;-26.094;27.994;2022-12-24T01:51:35;84810.35;;;28.43;25.40
73974;BME280;62336;-26.094;27.994;2022-12-24T01:54:00;84807.11;;;28.77;25.27
73974;BME280;62336;-26.094;27.994;2022-12-24T01:56:24;84809.41;;;28.09;25.47
73974;BME280;62336;-26.094;27.994;2022-12-24T01:58:51;84807.91;;;28.73;25.15
73974;BME280;62336;-26.094;27.994;2022-12-24T02:01:14;84810.07;;;28.47;25.53
73974;BME280;62336;-26.094;27.994;2022-12-24T02:03:39;84806.97;;;28.57;25.51
73974;BME280;62336;-26.094;27.994;2022-12-24T02:06:05;84801.97;;;28.65;25.39
73974;BME280;62336;-26.094;27.994;2022-12-24T02:08:30;84794.34;;;28.44;25.29
73974;BME280;62336;-26.094;27.994;2022-12-24T02:10:56;84792.63;;;28.47;25.31
73974;BME280;62336;-26.094;27.994;2022-12-24T02:13:21;84789.01;;;28.70;25.21
73974;BME280;62336;-26.094;27.994;2022-12-24T02:15:57;84787.97;;;28.69;25.01
73974;BME280;62336;-26.094;27.994;2022-12-24T02:18:16;84785.30;;;29.27;24.91
73974;BME280;62336;-26.094;27.994;2022-12-24T02:23:10;84776.83;;;28.62;24.84
73974;BME280;62336;-26.094;27.994;2022-12-24T02:27:56;84777.21;;;29.08;25.00
73974;BME280;62336;-26.094;27.994;2022-12-24T02:30:19;84776.97;;;28.92;25.13
73974;BME280;62336;-26.094;27.994;2022-12-24T02:32:56;84778.53;;;28.66;25.34
73974;BME280;62336;-26.094;27.994;2022-12-24T02:35:13;84776.36;;;28.69;25.19
73974;BME280;62336;-26.094;27.994;2022-12-24T02:37:37;84777.55;;;28.74;25.36
73974;BME280;62336;-26.094;27.994;2022-12-24T02:40:02;84785.10;;;28.27;25.43
73974;BME280;62336;-26.094;27.994;2022-12-24T02:42:30;84792.74;;;28.27;25.52
73974;BME280;62336;-26.094;27.994;2022-12-24T02:44:54;84800.51;;;28.41;25.69
73974;BME280;62336;-26.094;27.994;2022-12-24T02:47:18;84804.25;;;28.35;25.62
73974;BME280;62336;-26.094;27.994;2022-12-24T02:49:43;84807.07;;;28.52;25.65
73974;BME280;62336;-26.094;27.994;2022-12-24T02:52:06;84808.97;;;28.16;25.47
73974;BME280;62336;-26.094;27.994;2022-12-24T02:54:32;84811.67;;;28.48;25.42
73974;BME280;62336;-26.094;27.994;2022-12-24T02:57:06;84817.90;;;28.19;25.62
73974;BME280;62336;-26.094;27.994;2022-12-24T02:59:34;84824.27;;;28.33;25.54
73974;BME280;62336;-26.094;27.994;2022-12-24T03:01:53;84826.04;;;28.58;25.29
73974;BME280;62336;-26.094;27.994;2022-12-24T03:04:20;84827.36;;;28.43;25.52
73974;BME280;62336;-26.094;27.994;2022-12-24T03:06:42;84825.66;;;28.50;25.50
73974;BME280;62336;-26.094;27.994;2022-12-24T03:09:07;84824.61;;;28.50;25.51
73974;BME280;62336;-26.094;27.994;2022-12-24T03:11:28;84821.49;;;28.59;25.45
73974;BME280;62336;-26.094;27.994;2022-12-24T03:13:54;84826.85;;;28.01;25.45
73974;BME280;62336;-26.094;27.994;2022-12-24T03:16:23;84828.94;;;28.54;25.46
73974;BME280;62336;-26.094;27.994;2022-12-24T03:18:46;84828.56;;;28.08;25.57
73974;BME280;62336;-26.094;27.994;2022-12-24T03:21:11;84825.75;;;28.53;25.52
73974;BME280;62336;-26.094;27.994;2022-12-24T03:23:34;84823.24;;;28.36;25.80
73974;BME280;62336;-26.094;27.994;2022-12-24T03:26:01;84824.64;;;28.48;25.56
73974;BME280;62336;-26.094;27.994;2022-12-24T03:28:26;84828.86;;;28.25;25.65
73974;BME280;62336;-26.094;27.994;2022-12-24T03:30:50;84829.53;;;28.11;25.68
73974;BME280;62336;-26.094;27.994;2022-12-24T03:33:16;84834.98;;;28.60;25.78
73974;BME280;62336;-26.094;27.994;2022-12-24T03:35:40;84835.29;;;28.29;25.79
73974;BME280;62336;-26.094;27.994;2022-12-24T03:38:06;84838.29;;;28.14;26.37
73974;BME280;62336;-26.094;27.994;2022-12-24T03:40:31;84840.20;;;27.77;26.36
73974;BME280;62336;-26.094;27.994;2022-12-24T03:42:57;84843.17;;;28.03;25.96
73974;BME280;62336;-26.094;27.994;2022-12-24T03:45:21;84844.64;;;28.01;25.93
73974;BME280;62336;-26.094;27.994;2022-12-24T03:47:47;84850.03;;;28.33;25.84
73974;BME280;62336;-26.094;27.994;2022-12-24T03:50:13;84853.37;;;28.84;25.87
73974;BME280;62336;-26.094;27.994;2022-12-24T03:52:43;84859.54;;;28.28;25.90
73974;BME280;62336;-26.094;27.994;2022-12-24T03:55:03;84863.67;;;28.11;26.10
73974;BME280;62336;-26.094;27.994;2022-12-24T03:57:28;84863.86;;;28.21;26.52
73974;BME280;62336;-26.094;27.994;2022-12-24T03:59:53;84863.64;;;28.30;26.49
73974;BME280;62336;-26.094;27.994;2022-12-24T04:02:19;84864.17;;;28.17;26.24
73974;BME280;62336;-26.094;27.994;2022-12-24T04:04:44;84863.47;;;29.08;25.42
73974;BME280;62336;-26.094;27.994;2022-12-24T04:07:10;84866.66;;;28.45;25.72
73974;BME280;62336;-26.094;27.994;2022-12-24T04:09:34;84870.58;;;29.14;25.13
73974;BME280;62336;-26.094;27.994;2022-12-24T04:12:00;84878.38;;;28.93;24.88
73974;BME280;62336;-26.094;27.994;2022-12-24T04:14:25;84876.45;;;29.13;24.70
73974;BME280;62336;-26.094;27.994;2022-12-24T04:16:50;84875.97;;;29.34;24.73
73974;BME280;62336;-26.094;27.994;2022-12-24T04:19:15;84878.42;;;29.00;25.18
73974;BME280;62336;-26.094;27.994;2022-12-24T04:21:40;84879.24;;;28.59;25.37
73974;BME280;62336;-26.094;27.994;2022-12-24T04:24:06;84881.08;;;29.04;25.48
73974;BME280;62336;-26.094;27.994;2022-12-24T04:26:32;84877.72;;;28.57;25.72
73974;BME280;62336;-26.094;27.994;2022-12-24T04:28:58;84881.71;;;28.53;25.62
73974;BME280;62336;-26.094;27.994;2022-12-24T04:31:23;84885.15;;;28.76;25.26
73974;BME280;62336;-26.094;27.994;2022-12-24T04:33:51;84889.08;;;28.40;25.90
73974;BME280;62336;-26.094;27.994;2022-12-24T04:36:15;84887.74;;;28.44;25.74
73974;BME280;62336;-26.094;27.994;2022-12-24T04:38:39;84889.88;;;29.00;25.48
73974;BME280;62336;-26.094;27.994;2022-12-24T04:41:06;84892.40;;;28.74;25.10
73974;BME280;62336;-26.094;27.994;2022-12-24T04:43:30;84896.43;;;28.94;24.77
73974;BME280;62336;-26.094;27.994;2022-12-24T04:45:55;84901.08;;;29.24;24.47
73974;BME280;62336;-26.094;27.994;2022-12-24T04:48:20;84900.82;;;29.25;24.49
73974;BME280;62336;-26.094;27.994;2022-12-24T04:50:45;84899.11;;;29.47;24.40
73974;BME280;62336;-26.094;27.994;2022-12-24T04:53:11;84901.82;;;29.40;24.73
73974;BME280;62336;-26.094;27.994;2022-12-24T04:55:36;84904.73;;;30.00;24.11
73974;BME280;62336;-26.094;27.994;2022-12-24T04:58:01;84906.16;;;30.02;23.75
73974;BME280;62336;-26.094;27.994;2022-12-24T05:00:27;84909.19;;;30.22;23.77
73974;BME280;62336;-26.094;27.994;2022-12-24T05:02:53;84909.39;;;29.70;23.50
73974;BME280;62336;-26.094;27.994;2022-12-24T05:05:18;84911.27;;;29.76;23.72
73974;BME280;62336;-26.094;27.994;2022-12-24T05:07:44;84912.96;;;30.24;23.45
73974;BME280;62336;-26.094;27.994;2022-12-24T05:10:11;84919.05;;;30.30;23.63
73974;BME280;62336;-26.094;27.994;2022-12-24T05:12:36;84921.93;;;30.73;23.04
73974;BME280;62336;-26.094;27.994;2022-12-24T05:15:02;84924.95;;;30.40;22.86
73974;BME280;62336;-26.094;27.994;2022-12-24T05:17:28;84921.86;;;30.83;22.77
73974;BME280;62336;-26.094;27.994;2022-12-24T05:19:53;84920.56;;;30.76;22.95
73974;BME280;62336;-26.094;27.994;2022-12-24T05:22:19;84923.58;;;31.31;22.29
73974;BME280;62336;-26.094;27.994;2022-12-24T05:24:45;84923.05;;;31.00;22.88
73974;BME280;62336;-26.094;27.994;2022-12-24T05:27:09;84923.81;;;31.41;22.72
73974;BME280;62336;-26.094;27.994;2022-12-24T05:29:35;84927.41;;;31.58;22.60
73974;BME280;62336;-26.094;27.994;2022-12-24T05:32:01;84931.45;;;32.01;21.62
73974;BME280;62336;-26.094;27.994;2022-12-24T05:34:26;84929.74;;;32.30;21.97
73974;BME280;62336;-26.094;27.994;2022-12-24T05:36:51;84933.74;;;31.87;21.61
73974;BME280;62336;-26.094;27.994;2022-12-24T05:39:17;84939.07;;;31.87;22.21
73974;BME280;62336;-26.094;27.994;2022-12-24T05:41:42;84933.84;;;31.62;21.73
73974;BME280;62336;-26.094;27.994;2022-12-24T05:44:06;84935.22;;;32.08;21.29
73974;BME280;62336;-26.094;27.994;2022-12-24T05:46:31;84933.59;;;31.83;20.67
73974;BME280;62336;-26.094;27.994;2022-12-24T05:48:56;84937.53;;;31.76;20.41
73974;BME280;62336;-26.094;27.994;2022-12-24T05:51:22;84942.80;;;32.02;21.11
73974;BME280;62336;-26.094;27.994;2022-12-24T05:53:47;84941.70;;;32.40;20.89
73974;BME280;62336;-26.094;27.994;2022-12-24T05:56:14;84944.06;;;31.98;20.65
73974;BME280;62336;-26.094;27.994;2022-12-24T05:58:37;84940.33;;;32.21;20.69
73974;BME280;62336;-26.094;27.994;2022-12-24T08:12:59;84888.02;;;24.95;32.44
73974;BME280;62336;-26.094;27.994;2022-12-24T08:15:24;84886.34;;;27.24;27.93
73974;BME280;62336;-26.094;27.994;2022-12-24T08:17:48;84877.52;;;29.50;24.87
73974;BME280;62336;-26.094;27.994;2022-12-24T08:20:14;84873.63;;;31.08;22.32
73974;BME280;62336;-26.094;27.994;2022-12-24T08:22:39;84868.34;;;31.89;19.07
73974;BME280;62336;-26.094;27.994;2022-12-24T08:25:06;84865.00;;;33.29;18.47
73974;BME280;62336;-26.094;27.994;2022-12-24T08:27:31;84857.81;;;33.75;18.20
73974;BME280;62336;-26.094;27.994;2022-12-24T08:29:56;84847.85;;;34.00;16.58
73974;BME280;62336;-26.094;27.994;2022-12-24T08:32:21;84842.57;;;34.47;16.25
73974;BME280;62336;-26.094;27.994;2022-12-24T08:34:46;84837.36;;;35.06;16.60
73974;BME280;62336;-26.094;27.994;2022-12-24T08:37:12;84835.75;;;34.96;15.82
73974;BME280;62336;-26.094;27.994;2022-12-24T08:39:37;84834.60;;;34.95;14.86
73974;BME280;62336;-26.094;27.994;2022-12-24T08:42:03;84835.92;;;35.27;15.31
73974;BME280;62336;-26.094;27.994;2022-12-24T08:44:28;84829.93;;;36.03;15.19
73974;BME280;62336;-26.094;27.994;2022-12-24T08:46:53;84821.61;;;36.07;14.47
73974;BME280;62336;-26.094;27.994;2022-12-24T08:49:18;84817.81;;;35.68;14.80
73974;BME280;62336;-26.094;27.994;2022-12-24T08:51:43;84818.28;;;35.82;15.31
73974;BME280;62336;-26.094;27.994;2022-12-24T08:54:08;84809.14;;;36.16;15.13
73974;BME280;62336;-26.094;27.994;2022-12-24T08:56:33;84804.21;;;35.68;15.92
73974;BME280;62336;-26.094;27.994;2022-12-24T08:58:59;84815.69;;;35.54;15.06
73974;BME280;62336;-26.094;27.994;2022-12-24T09:01:24;84820.85;;;36.32;14.85
73974;BME280;62336;-26.094;27.994;2022-12-24T09:03:49;84821.14;;;36.59;14.66
73974;BME280;62336;-26.094;27.994;2022-12-24T09:06:14;84822.30;;;36.46;15.04
73974;BME280;62336;-26.094;27.994;2022-12-24T09:08:39;84822.01;;;35.98;15.00
73974;BME280;62336;-26.094;27.994;2022-12-24T09:11:06;84825.05;;;36.41;14.42
73974;BME280;62336;-26.094;27.994;2022-12-24T09:13:29;84826.86;;;36.47;13.42
73974;BME280;62336;-26.094;27.994;2022-12-24T09:15:54;84832.64;;;36.58;14.25
73974;BME280;62336;-26.094;27.994;2022-12-24T09:18:19;84825.68;;;36.09;14.05
73974;BME280;62336;-26.094;27.994;2022-12-24T09:20:44;84824.88;;;36.23;13.97
73974;BME280;62336;-26.094;27.994;2022-12-24T09:23:09;84829.29;;;36.49;14.64
73974;BME280;62336;-26.094;27.994;2022-12-24T09:25:34;84827.67;;;36.38;14.00
73974;BME280;62336;-26.094;27.994;2022-12-24T09:28:00;84824.56;;;36.20;13.47
73974;BME280;62336;-26.094;27.994;2022-12-24T09:30:25;84823.69;;;36.62;13.32
73974;BME280;62336;-26.094;27.994;2022-12-24T09:32:51;84816.44;;;37.30;12.43
73974;BME280;62336;-26.094;27.994;2022-12-24T09:35:17;84819.38;;;36.66;12.79
73974;BME280;62336;-26.094;27.994;2022-12-24T09:37:42;84818.70;;;36.74;12.90
73974;BME280;62336;-26.094;27.994;2022-12-24T09:40:17;84813.50;;;36.74;12.63
73974;BME280;62336;-26.094;27.994;2022-12-24T09:42:41;84815.24;;;36.85;12.77
73974;BME280;62336;-26.094;27.994;2022-12-24T09:45:04;84813.38;;;36.81;12.83
73974;BME280;62336;-26.094;27.994;2022-12-24T09:47:27;84813.47;;;36.48;13.05
73974;BME280;62336;-26.094;27.994;2022-12-24T09:49:51;84811.07;;;37.21;12.39
73974;BME280;62336;-26.094;27.994;2022-12-24T09:52:15;84808.78;;;38.03;12.21
73974;BME280;62336;-26.094;27.994;2022-12-24T09:54:42;84807.08;;;37.79;11.42
73974;BME280;62336;-26.094;27.994;2022-12-24T09:57:16;84804.97;;;37.44;12.02
73974;BME280;62336;-26.094;27.994;2022-12-24T09:59:40;84807.31;;;37.36;12.77
73974;BME280;62336;-26.094;27.994;2022-12-24T10:01:54;84801.70;;;37.86;13.33
73974;BME280;62336;-26.094;27.994;2022-12-24T10:04:21;84802.71;;;37.43;12.65
73974;BME280;62336;-26.094;27.994;2022-12-24T10:06:49;84793.90;;;37.47;11.93
73974;BME280;62336;-26.094;27.994;2022-12-24T10:09:15;84792.73;;;37.88;12.82
73974;BME280;62336;-26.094;27.994;2022-12-24T10:11:42;84788.25;;;38.12;12.59
73974;BME280;62336;-26.094;27.994;2022-12-24T10:14:09;84785.00;;;38.69;12.73
73974;BME280;62336;-26.094;27.994;2022-12-24T10:16:31;84783.83;;;38.50;11.76
73974;BME280;62336;-26.094;27.994;2022-12-24T10:18:57;84778.51;;;38.63;11.29
73974;BME280;62336;-26.094;27.994;2022-12-24T10:21:19;84768.63;;;38.48;11.84
73974;BME280;62336;-26.094;27.994;2022-12-24T10:23:45;84770.34;;;38.24;12.16
73974;BME280;62336;-26.094;27.994;2022-12-24T10:26:11;84773.88;;;38.19;11.92
73974;BME280;62336;-26.094;27.994;2022-12-24T10:28:33;84773.67;;;38.61;10.15
73974;BME280;62336;-26.094;27.994;2022-12-24T10:31:02;84773.53;;;38.31;10.69
73974;BME280;62336;-26.094;27.994;2022-12-24T10:33:28;84767.21;;;38.44;11.27
73974;BME280;62336;-26.094;27.994;2022-12-24T10:35:49;84767.78;;;38.34;11.85
73974;BME280;62336;-26.094;27.994;2022-12-24T10:38:11;84765.70;;;38.39;12.45
73974;BME280;62336;-26.094;27.994;2022-12-24T10:40:38;84763.43;;;38.63;12.44
73974;BME280;62336;-26.094;27.994;2022-12-24T10:43:04;84754.22;;;38.83;11.32
73974;BME280;62336;-26.094;27.994;2022-12-24T10:45:33;84755.26;;;38.13;12.14
73974;BME280;62336;-26.094;27.994;2022-12-24T10:47:55;84759.65;;;38.15;12.01
73974;BME280;62336;-26.094;27.994;2022-12-24T10:50:22;84753.37;;;38.05;11.39
73974;BME280;62336;-26.094;27.994;2022-12-24T10:52:43;84750.79;;;39.07;11.46
73974;BME280;62336;-26.094;27.994;2022-12-24T10:55:10;84751.36;;;38.61;11.78
73974;BME280;62336;-26.094;27.994;2022-12-24T10:57:31;84742.13;;;39.06;11.79
73974;BME280;62336;-26.094;27.994;2022-12-24T10:59:57;84740.59;;;38.84;10.69
73974;BME280;62336;-26.094;27.994;2022-12-24T11:02:27;84738.21;;;38.83;10.20
73974;BME280;62336;-26.094;27.994;2022-12-24T11:04:49;84735.35;;;38.72;10.16
73974;BME280;62336;-26.094;27.994;2022-12-24T11:07:18;84737.88;;;38.99;9.85
73974;BME280;62336;-26.094;27.994;2022-12-24T11:09:39;84726.55;;;38.54;10.89
73974;BME280;62336;-26.094;27.994;2022-12-24T11:12:04;84729.69;;;39.01;10.91
73974;BME280;62336;-26.094;27.994;2022-12-24T11:14:34;84730.74;;;38.96;10.90
73974;BME280;62336;-26.094;27.994;2022-12-24T11:16:54;84725.73;;;38.88;11.54
73974;BME280;62336;-26.094;27.994;2022-12-24T11:19:21;84727.90;;;38.73;10.99
73974;BME280;62336;-26.094;27.994;2022-12-24T11:21:44;84717.77;;;38.87;11.04
73974;BME280;62336;-26.094;27.994;2022-12-24T11:24:22;84723.22;;;38.64;12.46
73974;BME280;62336;-26.094;27.994;2022-12-24T11:26:34;84718.80;;;38.69;11.27
73974;BME280;62336;-26.094;27.994;2022-12-24T11:31:25;84717.22;;;38.32;10.49
73974;BME280;62336;-26.094;27.994;2022-12-24T11:33:50;84716.37;;;39.14;10.16
73974;BME280;62336;-26.094;27.994;2022-12-24T11:36:20;84715.56;;;38.62;10.40
73974;BME280;62336;-26.094;27.994;2022-12-24T11:38:40;84715.07;;;39.17;10.98
73974;BME280;62336;-26.094;27.994;2022-12-24T11:41:07;84708.60;;;38.09;12.03
73974;BME280;62336;-26.094;27.994;2022-12-24T11:43:35;84706.08;;;38.09;10.67
73974;BME280;62336;-26.094;27.994;2022-12-24T11:45:56;84708.18;;;37.71;10.06
73974;BME280;62336;-26.094;27.994;2022-12-24T11:48:28;84706.64;;;38.24;10.46
73974;BME280;62336;-26.094;27.994;2022-12-24T11:50:55;84703.26;;;38.51;10.92
73974;BME280;62336;-26.094;27.994;2022-12-24T11:53:16;84708.40;;;38.80;10.60
73974;BME280;62336;-26.094;27.994;2022-12-24T11:55:43;84702.29;;;38.23;10.27
73974;BME280;62336;-26.094;27.994;2022-12-24T11:58:15;84698.22;;;37.84;10.70
73974;BME280;62336;-26.094;27.994;2022-12-24T12:00:30;84701.33;;;38.47;11.69
73974;BME280;62336;-26.094;27.994;2022-12-24T12:02:57;84699.02;;;38.47;12.09
73974;BME280;62336;-26.094;27.994;2022-12-24T12:05:25;84693.99;;;37.62;12.34
73974;BME280;62336;-26.094;27.994;2022-12-24T12:07:50;84692.14;;;37.99;12.69
73974;BME280;62336;-26.094;27.994;2022-12-24T12:10:18;84690.77;;;37.47;13.43
73974;BME280;62336;-26.094;27.994;2022-12-24T12:12:42;84688.63;;;37.39;12.41
73974;BME280;62336;-26.094;27.994;2022-12-24T12:15:08;84684.42;;;37.82;13.05
73974;BME280;62336;-26.094;27.994;2022-12-24T12:17:32;84680.71;;;38.18;12.09
73974;BME280;62336;-26.094;27.994;2022-12-24T12:19:58;84681.48;;;38.55;12.72
73974;BME280;62336;-26.094;27.994;2022-12-24T12:22:25;84681.08;;;38.05;12.92
73974;BME280;62336;-26.094;27.994;2022-12-24T12:24:48;84681.40;;;38.06;13.14
73974;BME280;62336;-26.094;27.994;2022-12-24T12:27:16;84681.98;;;38.36;12.15
73974;BME280;62336;-26.094;27.994;2022-12-24T12:29:38;84674.96;;;38.34;12.51
73974;BME280;62336;-26.094;27.994;2022-12-24T12:32:05;84672.13;;;38.37;11.95
73974;BME280;62336;-26.094;27.994;2022-12-24T12:34:28;84672.10;;;37.99;12.98
73974;BME280;62336;-26.094;27.994;2022-12-24T12:36:52;84670.45;;;38.15;13.27
73974;BME280;62336;-26.094;27.994;2022-12-24T12:39:14;84667.18;;;38.43;12.87
73974;BME280;62336;-26.094;27.994;2022-12-24T12:41:48;84664.57;;;38.71;12.23
73974;BME280;62336;-26.094;27.994;2022-12-24T12:44:25;84662.67;;;38.15;12.73
73974;BME280;62336;-26.094;27.994;2022-12-24T12:46:37;84661.60;;;38.49;13.08
73974;BME280;62336;-26.094;27.994;2022-12-24T12:49:05;84654.69;;;38.06;12.41
73974;BME280;62336;-26.094;27.994;2022-12-24T12:51:24;84656.90;;;37.52;13.35
73974;BME280;62336;-26.094;27.994;2022-12-24T12:53:57;84655.93;;;38.02;12.93
73974;BME280;62336;-26.094;27.994;2022-12-24T12:56:19;84655.22;;;38.04;12.72
73974;BME280;62336;-26.094;27.994;2022-12-24T12:58:37;84653.57;;;37.56;12.92
73974;BME280;62336;-26.094;27.994;2022-12-24T13:01:04;84651.07;;;37.86;12.31
73974;BME280;62336;-26.094;27.994;2022-12-24T13:06:02;84650.95;;;37.39;13.22
73974;BME280;62336;-26.094;27.994;2022-12-24T13:10:53;84649.88;;;37.69;12.89
73974;BME280;62336;-26.094;27.994;2022-12-24T13:15:49;84644.95;;;37.74;12.78
73974;BME280;62336;-26.094;27.994;2022-12-24T13:18:08;84640.08;;;37.23;12.85
73974;BME280;62336;-26.094;27.994;2022-12-24T13:20:24;84636.60;;;37.72;12.85
73974;BME280;62336;-26.094;27.994;2022-12-24T13:22:50;84633.41;;;37.79;11.82
73974;BME280;62336;-26.094;27.994;2022-12-24T13:25:19;84630.02;;;37.28;12.52
73974;BME280;62336;-26.094;27.994;2022-12-24T13:27:37;84628.47;;;37.66;12.86
73974;BME280;62336;-26.094;27.994;2022-12-24T13:30:05;84624.70;;;37.42;13.02
73974;BME280;62336;-26.094;27.994;2022-12-24T13:32:37;84622.76;;;37.67;11.97
73974;BME280;62336;-26.094;27.994;2022-12-24T13:34:55;84623.73;;;37.60;12.60
73974;BME280;62336;-26.094;27.994;2022-12-24T13:37:21;84622.20;;;37.82;12.55
73974;BME280;62336;-26.094;27.994;2022-12-24T13:42:09;84620.07;;;37.92;12.15
73974;BME280;62336;-26.094;27.994;2022-12-24T13:44:35;84611.14;;;37.97;12.74
73974;BME280;62336;-26.094;27.994;2022-12-24T13:47:13;84613.59;;;37.82;13.28
73974;BME280;62336;-26.094;27.994;2022-12-24T13:49:29;84610.51;;;38.34;12.33
73974;BME280;62336;-26.094;27.994;2022-12-24T13:51:51;84607.76;;;38.30;12.52
73974;BME280;62336;-26.094;27.994;2022-12-24T13:54:20;84605.70;;;38.17;12.42
73974;BME280;62336;-26.094;27.994;2022-12-24T13:56:42;84604.26;;;38.17;13.74
73974;BME280;62336;-26.094;27.994;2022-12-24T13:59:19;84601.73;;;38.06;12.88
73974;BME280;62336;-26.094;27.994;2022-12-24T14:01:34;84594.32;;;38.62;12.99
73974;BME280;62336;-26.094;27.994;2022-12-24T14:04:00;84591.67;;;38.48;13.07
73974;BME280;62336;-26.094;27.994;2022-12-24T14:06:25;84593.40;;;38.11;12.67
73974;BME280;62336;-26.094;27.994;2022-12-24T14:08:50;84587.18;;;38.70;13.01
73974;BME280;62336;-26.094;27.994;2022-12-24T14:11:14;84588.63;;;39.09;12.01
73974;BME280;62336;-26.094;27.994;2022-12-24T14:13:51;84582.54;;;38.65;11.63
73974;BME280;62336;-26.094;27.994;2022-12-24T14:16:03;84579.47;;;38.57;12.20
73974;BME280;62336;-26.094;27.994;2022-12-24T14:18:28;84583.52;;;38.75;12.45
73974;BME280;62336;-26.094;27.994;2022-12-24T14:20:56;84583.32;;;38.93;12.30
73974;BME280;62336;-26.094;27.994;2022-12-24T14:23:26;84580.19;;;39.40;12.88
73974;BME280;62336;-26.094;27.994;2022-12-24T14:25:43;84583.90;;;39.14;12.66
73974;BME280;62336;-26.094;27.994;2022-12-24T14:28:15;84581.39;;;38.75;12.00
73974;BME280;62336;-26.094;27.994;2022-12-24T14:30:33;84579.85;;;38.34;12.07
73974;BME280;62336;-26.094;27.994;2022-12-24T14:32:58;84573.25;;;38.03;12.02
73974;BME280;62336;-26.094;27.994;2022-12-24T14:35:26;84578.19;;;38.23;12.50
73974;BME280;62336;-26.094;27.994;2022-12-24T14:38:04;84575.27;;;38.64;13.23
73974;BME280;62336;-26.094;27.994;2022-12-24T14:40:16;84574.56;;;38.37;12.82
73974;BME280;62336;-26.094;27.994;2022-12-24T14:42:45;84570.99;;;38.81;12.61
73974;BME280;62336;-26.094;27.994;2022-12-24T14:45:15;84570.13;;;38.76;13.00
73974;BME280;62336;-26.094;27.994;2022-12-24T14:47:34;84569.81;;;38.48;12.26
73974;BME280;62336;-26.094;27.994;2022-12-24T14:50:02;84570.49;;;37.98;12.68
73974;BME280;62336;-26.094;27.994;2022-12-24T14:52:24;84568.66;;;37.44;12.65
73974;BME280;62336;-26.094;27.994;2022-12-24T14:54:44;84570.19;;;37.86;12.94
73974;BME280;62336;-26.094;27.994;2022-12-24T14:57:19;84570.09;;;37.95;13.37
73974;BME280;62336;-26.094;27.994;2022-12-24T14:59:40;84572.52;;;37.76;13.55
73974;BME280;62336;-26.094;27.994;2022-12-24T15:04:25;84573.86;;;38.06;13.00
73974;BME280;62336;-26.094;27.994;2022-12-24T15:06:52;84579.71;;;38.46;12.92
73974;BME280;62336;-26.094;27.994;2022-12-24T15:09:19;84578.03;;;38.46;13.00
73974;BME280;62336;-26.094;27.994;2022-12-24T15:11:43;84574.03;;;38.53;13.25